sensor_id;sensor_type;location;lat;lon;timestamp;P1;durP1;ratioP1;P2;durP2;ratioP2
7171;SDS011;3627;46.544;14.944;2023-09-12T00:00:52;14.70;;;13.18;;
7171;SDS011;3627;46.544;14.944;2023-09-12T00:03:19;16.05;;;13.95;;
7171;SDS011;3627;46.544;14.944;2023-09-12T00:05:50;16.40;;;13.00;;
7171;SDS011;3627;46.544;14.944;2023-09-12T00:08:16;16.08;;;13.90;;
7171;SDS011;3627;46.544;14.944;2023-09-12T00:13:25;15.25;;;13.65;;
7171;SDS011;3627;46.544;14.944;2023-09-12T00:15:51;15.93;;;13.18;;
7171;SDS011;3627;46.544;14.944;2023-09-12T00:18:18;15.95;;;13.40;;
7171;SDS011;3627;46.544;14.944;2023-09-12T00:20:44;14.57;;;13.00;;
7171;SDS011;3627;46.544;14.944;2023-09-12T00:23:10;14.70;;;13.10;;
7171;SDS011;3627;46.544;14.944;2023-09-12T00:25:37;15.48;;;13.15;;
7171;SDS011;3627;46.544;14.944;2023-09-12T00:28:03;16.85;;;13.73;;
7171;SDS011;3627;46.544;14.944;2023-09-12T00:30:31;15.18;;;13.02;;
7171;SDS011;3627;46.544;14.944;2023-09-12T00:32:58;17.63;;;14.10;;
7171;SDS011;3627;46.544;14.944;2023-09-12T00:35:24;16.25;;;13.27;;
7171;SDS011;3627;46.544;14.944;2023-09-12T00:37:50;15.02;;;13.10;;
7171;SDS011;3627;46.544;14.944;2023-09-12T00:40:17;15.68;;;13.98;;
7171;SDS011;3627;46.544;14.944;2023-09-12T00:42:43;17.48;;;14.50;;
7171;SDS011;3627;46.544;14.944;2023-09-12T00:45:09;15.38;;;13.35;;
7171;SDS011;3627;46.544;14.944;2023-09-12T00:47:47;15.25;;;13.40;;
7171;SDS011;3627;46.544;14.944;2023-09-12T00:50:14;15.57;;;13.95;;
7171;SDS011;3627;46.544;14.944;2023-09-12T00:52:41;15.90;;;14.32;;
7171;SDS011;3627;46.544;14.944;2023-09-12T00:55:08;14.73;;;13.23;;
7171;SDS011;3627;46.544;14.944;2023-09-12T00:57:34;16.27;;;12.98;;
7171;SDS011;3627;46.544;14.944;2023-09-12T01:00:01;15.45;;;13.90;;
7171;SDS011;3627;46.544;14.944;2023-09-12T01:02:32;14.52;;;12.90;;
7171;SDS011;3627;46.544;14.944;2023-09-12T01:04:59;14.55;;;13.05;;
7171;SDS011;3627;46.544;14.944;2023-09-12T01:07:26;15.13;;;13.55;;
7171;SDS011;3627;46.544;14.944;2023-09-12T01:10:02;15.68;;;14.00;;
7171;SDS011;3627;46.544;14.944;2023-09-12T01:12:30;14.48;;;12.75;;
7171;SDS011;3627;46.544;14.944;2023-09-12T01:14:56;17.13;;;14.38;;
7171;SDS011;3627;46.544;14.944;2023-09-12T01:17:23;16.02;;;12.82;;
7171;SDS011;3627;46.544;14.944;2023-09-12T01:20:04;15.15;;;13.05;;
7171;SDS011;3627;46.544;14.944;2023-09-12T01:22:37;15.38;;;13.25;;
7171;SDS011;3627;46.544;14.944;2023-09-12T01:25:14;16.70;;;14.10;;
7171;SDS011;3627;46.544;14.944;2023-09-12T01:27:48;16.42;;;13.32;;
7171;SDS011;3627;46.544;14.944;2023-09-12T01:30:17;16.23;;;13.38;;
7171;SDS011;3627;46.544;14.944;2023-09-12T01:32:48;15.38;;;13.77;;
7171;SDS011;3627;46.544;14.944;2023-09-12T01:35:14;15.50;;;13.88;;
7171;SDS011;3627;46.544;14.944;2023-09-12T01:37:41;15.23;;;13.55;;
7171;SDS011;3627;46.544;14.944;2023-09-12T01:40:08;15.82;;;13.20;;
7171;SDS011;3627;46.544;14.944;2023-09-12T01:42:37;17.13;;;13.82;;
7171;SDS011;3627;46.544;14.944;2023-09-12T01:45:09;15.07;;;13.57;;
7171;SDS011;3627;46.544;14.944;2023-09-12T01:47:36;15.82;;;13.63;;
7171;SDS011;3627;46.544;14.944;2023-09-12T01:50:03;14.68;;;13.18;;
7171;SDS011;3627;46.544;14.944;2023-09-12T01:52:31;14.40;;;12.85;;
7171;SDS011;3627;46.544;14.944;2023-09-12T01:54:58;15.40;;;13.55;;
7171;SDS011;3627;46.544;14.944;2023-09-12T01:57:25;14.98;;;13.00;;
7171;SDS011;3627;46.544;14.944;2023-09-12T01:59:51;14.00;;;12.60;;
7171;SDS011;3627;46.544;14.944;2023-09-12T02:02:19;15.95;;;14.15;;
7171;SDS011;3627;46.544;14.944;2023-09-12T02:04:48;15.00;;;13.38;;
7171;SDS011;3627;46.544;14.944;2023-09-12T02:07:19;15.25;;;12.73;;
7171;SDS011;3627;46.544;14.944;2023-09-12T02:09:48;13.82;;;12.43;;
7171;SDS011;3627;46.544;14.944;2023-09-12T02:12:15;15.57;;;13.13;;
7171;SDS011;3627;46.544;14.944;2023-09-12T02:14:43;15.45;;;12.60;;
7171;SDS011;3627;46.544;14.944;2023-09-12T02:17:09;14.40;;;12.85;;
7171;SDS011;3627;46.544;14.944;2023-09-12T02:19:46;16.73;;;13.93;;
7171;SDS011;3627;46.544;14.944;2023-09-12T02:22:12;16.08;;;13.48;;
7171;SDS011;3627;46.544;14.944;2023-09-12T02:24:39;18.45;;;14.15;;
7171;SDS011;3627;46.544;14.944;2023-09-12T02:27:05;14.95;;;13.45;;
7171;SDS011;3627;46.544;14.944;2023-09-12T02:29:32;15.02;;;13.48;;
7171;SDS011;3627;46.544;14.944;2023-09-12T02:31:59;15.88;;;13.77;;
7171;SDS011;3627;46.544;14.944;2023-09-12T02:34:26;16.00;;;13.93;;
7171;SDS011;3627;46.544;14.944;2023-09-12T02:37:03;16.63;;;13.65;;
7171;SDS011;3627;46.544;14.944;2023-09-12T02:39:29;14.68;;;13.13;;
7171;SDS011;3627;46.544;14.944;2023-09-12T02:41:56;17.27;;;14.18;;
7171;SDS011;3627;46.544;14.944;2023-09-12T02:44:28;17.25;;;13.55;;
7171;SDS011;3627;46.544;14.944;2023-09-12T02:47:08;16.65;;;13.75;;
7171;SDS011;3627;46.544;14.944;2023-09-12T02:49:35;15.32;;;13.02;;
7171;SDS011;3627;46.544;14.944;2023-09-12T02:52:01;15.43;;;13.30;;
7171;SDS011;3627;46.544;14.944;2023-09-12T02:54:29;16.02;;;13.93;;
7171;SDS011;3627;46.544;14.944;2023-09-12T02:56:55;16.67;;;13.93;;
7171;SDS011;3627;46.544;14.944;2023-09-12T02:59:22;16.20;;;13.88;;
7171;SDS011;3627;46.544;14.944;2023-09-12T03:01:54;14.68;;;12.90;;
7171;SDS011;3627;46.544;14.944;2023-09-12T03:04:20;16.10;;;14.40;;
7171;SDS011;3627;46.544;14.944;2023-09-12T03:06:47;16.08;;;13.55;;
7171;SDS011;3627;46.544;14.944;2023-09-12T03:09:14;14.27;;;12.80;;
7171;SDS011;3627;46.544;14.944;2023-09-12T03:11:56;14.93;;;13.32;;
7171;SDS011;3627;46.544;14.944;2023-09-12T03:14:22;16.38;;;13.43;;
7171;SDS011;3627;46.544;14.944;2023-09-12T03:16:50;16.67;;;13.45;;
7171;SDS011;3627;46.544;14.944;2023-09-12T03:19:20;15.32;;;13.77;;
7171;SDS011;3627;46.544;14.944;2023-09-12T03:21:49;16.20;;;14.23;;
7171;SDS011;3627;46.544;14.944;2023-09-12T03:24:20;14.88;;;12.98;;
7171;SDS011;3627;46.544;14.944;2023-09-12T03:26:51;15.77;;;14.00;;
7171;SDS011;3627;46.544;14.944;2023-09-12T03:29:20;16.80;;;13.48;;
7171;SDS011;3627;46.544;14.944;2023-09-12T03:31:46;15.48;;;13.43;;
7171;SDS011;3627;46.544;14.944;2023-09-12T03:34:12;15.95;;;13.95;;
7171;SDS011;3627;46.544;14.944;2023-09-12T03:36:39;17.20;;;14.25;;
7171;SDS011;3627;46.544;14.944;2023-09-12T03:39:06;15.82;;;13.68;;
7171;SDS011;3627;46.544;14.944;2023-09-12T03:41:33;14.50;;;13.00;;
7171;SDS011;3627;46.544;14.944;2023-09-12T03:44:04;14.75;;;13.23;;
7171;SDS011;3627;46.544;14.944;2023-09-12T03:46:47;16.08;;;14.10;;
7171;SDS011;3627;46.544;14.944;2023-09-12T03:49:15;17.33;;;13.38;;
7171;SDS011;3627;46.544;14.944;2023-09-12T03:51:41;17.80;;;13.73;;
7171;SDS011;3627;46.544;14.944;2023-09-12T03:54:08;14.50;;;13.00;;
7171;SDS011;3627;46.544;14.944;2023-09-12T03:56:34;16.23;;;13.43;;
7171;SDS011;3627;46.544;14.944;2023-09-12T03:59:00;15.10;;;13.50;;
7171;SDS011;3627;46.544;14.944;2023-09-12T04:01:29;13.98;;;12.45;;
7171;SDS011;3627;46.544;14.944;2023-09-12T04:03:55;15.25;;;13.75;;
7171;SDS011;3627;46.544;14.944;2023-09-12T04:06:22;15.75;;;13.70;;
7171;SDS011;3627;46.544;14.944;2023-09-12T04:08:48;14.07;;;12.63;;
7171;SDS011;3627;46.544;14.944;2023-09-12T04:11:14;14.75;;;12.43;;
7171;SDS011;3627;46.544;14.944;2023-09-12T04:13:41;15.18;;;12.63;;
7171;SDS011;3627;46.544;14.944;2023-09-12T04:16:07;15.93;;;13.57;;
7171;SDS011;3627;46.544;14.944;2023-09-12T04:18:38;15.48;;;12.95;;
7171;SDS011;3627;46.544;14.944;2023-09-12T04:21:07;16.27;;;14.02;;
7171;SDS011;3627;46.544;14.944;2023-09-12T04:23:35;15.50;;;12.75;;
7171;SDS011;3627;46.544;14.944;2023-09-12T04:26:04;18.17;;;14.25;;
7171;SDS011;3627;46.544;14.944;2023-09-12T04:28:31;15.20;;;13.70;;
7171;SDS011;3627;46.544;14.944;2023-09-12T04:31:08;17.42;;;14.13;;
7171;SDS011;3627;46.544;14.944;2023-09-12T04:33:36;18.38;;;13.80;;
7171;SDS011;3627;46.544;14.944;2023-09-12T04:36:12;16.98;;;13.38;;
7171;SDS011;3627;46.544;14.944;2023-09-12T04:38:38;15.85;;;13.30;;
7171;SDS011;3627;46.544;14.944;2023-09-12T04:41:05;16.25;;;13.50;;
7171;SDS011;3627;46.544;14.944;2023-09-12T04:43:34;16.05;;;14.15;;
7171;SDS011;3627;46.544;14.944;2023-09-12T04:46:01;17.50;;;15.52;;
7171;SDS011;3627;46.544;14.944;2023-09-12T04:48:27;19.73;;;15.45;;
7171;SDS011;3627;46.544;14.944;2023-09-12T04:50:53;15.55;;;13.95;;
7171;SDS011;3627;46.544;14.944;2023-09-12T04:53:22;15.40;;;13.80;;
7171;SDS011;3627;46.544;14.944;2023-09-12T04:55:49;13.82;;;12.43;;
7171;SDS011;3627;46.544;14.944;2023-09-12T04:58:17;15.20;;;13.60;;
7171;SDS011;3627;46.544;14.944;2023-09-12T05:00:47;14.45;;;12.73;;
7171;SDS011;3627;46.544;14.944;2023-09-12T05:03:16;16.38;;;13.68;;
7171;SDS011;3627;46.544;14.944;2023-09-12T05:05:44;17.05;;;14.00;;
7171;SDS011;3627;46.544;14.944;2023-09-12T05:08:11;16.75;;;13.43;;
7171;SDS011;3627;46.544;14.944;2023-09-12T05:10:39;16.08;;;13.77;;
7171;SDS011;3627;46.544;14.944;2023-09-12T05:13:06;19.98;;;13.63;;
7171;SDS011;3627;46.544;14.944;2023-09-12T05:15:41;13.15;;;11.75;;
7171;SDS011;3627;46.544;14.944;2023-09-12T05:18:07;13.95;;;11.45;;
7171;SDS011;3627;46.544;14.944;2023-09-12T05:20:34;12.43;;;11.13;;
7171;SDS011;3627;46.544;14.944;2023-09-12T05:23:00;13.32;;;9.57;;
7171;SDS011;3627;46.544;14.944;2023-09-12T05:25:27;11.45;;;10.07;;
7171;SDS011;3627;46.544;14.944;2023-09-12T05:27:55;10.05;;;9.05;;
7171;SDS011;3627;46.544;14.944;2023-09-12T05:30:21;14.35;;;9.77;;
7171;SDS011;3627;46.544;14.944;2023-09-12T05:32:48;10.13;;;8.75;;
7171;SDS011;3627;46.544;14.944;2023-09-12T05:35:14;13.20;;;9.88;;
7171;SDS011;3627;46.544;14.944;2023-09-12T05:37:43;10.90;;;9.57;;
7171;SDS011;3627;46.544;14.944;2023-09-12T05:40:10;11.82;;;9.45;;
7171;SDS011;3627;46.544;14.944;2023-09-12T05:42:39;10.05;;;8.68;;
7171;SDS011;3627;46.544;14.944;2023-09-12T05:45:08;10.40;;;9.15;;
7171;SDS011;3627;46.544;14.944;2023-09-12T05:47:34;10.55;;;8.82;;
7171;SDS011;3627;46.544;14.944;2023-09-12T05:50:10;11.32;;;8.80;;
7171;SDS011;3627;46.544;14.944;2023-09-12T05:52:37;12.70;;;8.70;;
7171;SDS011;3627;46.544;14.944;2023-09-12T05:55:04;16.00;;;8.57;;
7171;SDS011;3627;46.544;14.944;2023-09-12T05:57:31;24.30;;;9.80;;
7171;SDS011;3627;46.544;14.944;2023-09-12T05:59:58;14.27;;;8.35;;
7171;SDS011;3627;46.544;14.944;2023-09-12T06:02:27;16.23;;;8.35;;
7171;SDS011;3627;46.544;14.944;2023-09-12T06:04:54;13.90;;;7.88;;
7171;SDS011;3627;46.544;14.944;2023-09-12T06:07:20;12.73;;;7.00;;
7171;SDS011;3627;46.544;14.944;2023-09-12T06:09:47;9.85;;;6.68;;
7171;SDS011;3627;46.544;14.944;2023-09-12T06:12:13;7.43;;;6.50;;
7171;SDS011;3627;46.544;14.944;2023-09-12T06:14:39;7.20;;;6.40;;
7171;SDS011;3627;46.544;14.944;2023-09-12T06:17:06;10.18;;;6.30;;
7171;SDS011;3627;46.544;14.944;2023-09-12T06:19:33;8.82;;;6.18;;
7171;SDS011;3627;46.544;14.944;2023-09-12T06:22:00;7.60;;;6.22;;
7171;SDS011;3627;46.544;14.944;2023-09-12T06:30:33;7.88;;;5.88;;
7171;SDS011;3627;46.544;14.944;2023-09-12T08:21:30;6.00;;;5.50;;
7171;SDS011;3627;46.544;14.944;2023-09-12T08:23:56;5.75;;;5.18;;
7171;SDS011;3627;46.544;14.944;2023-09-12T08:26:23;6.55;;;5.35;;
7171;SDS011;3627;46.544;14.944;2023-09-12T08:28:49;8.82;;;5.50;;
7171;SDS011;3627;46.544;14.944;2023-09-12T08:31:16;7.57;;;5.30;;
7171;SDS011;3627;46.544;14.944;2023-09-12T08:33:42;5.97;;;5.38;;
7171;SDS011;3627;46.544;14.944;2023-09-12T08:36:08;5.60;;;5.10;;
7171;SDS011;3627;46.544;14.944;2023-09-12T08:38:36;5.25;;;4.75;;
7171;SDS011;3627;46.544;14.944;2023-09-12T08:41:02;5.80;;;5.15;;
7171;SDS011;3627;46.544;14.944;2023-09-12T08:43:29;5.75;;;5.25;;
7171;SDS011;3627;46.544;14.944;2023-09-12T08:45:55;7.40;;;5.15;;
7171;SDS011;3627;46.544;14.944;2023-09-12T08:48:22;9.10;;;5.38;;
7171;SDS011;3627;46.544;14.944;2023-09-12T08:50:49;5.65;;;5.15;;
7171;SDS011;3627;46.544;14.944;2023-09-12T08:53:15;5.15;;;4.65;;
7171;SDS011;3627;46.544;14.944;2023-09-12T08:55:47;8.07;;;4.95;;
7171;SDS011;3627;46.544;14.944;2023-09-12T08:58:13;5.47;;;4.93;;
7171;SDS011;3627;46.544;14.944;2023-09-12T09:00:39;5.60;;;5.10;;
7171;SDS011;3627;46.544;14.944;2023-09-12T09:03:08;5.43;;;4.85;;
7171;SDS011;3627;46.544;14.944;2023-09-12T09:05:34;5.75;;;5.03;;
7171;SDS011;3627;46.544;14.944;2023-09-12T09:08:02;5.88;;;4.90;;
7171;SDS011;3627;46.544;14.944;2023-09-12T09:10:28;5.55;;;5.05;;
7171;SDS011;3627;46.544;14.944;2023-09-12T09:12:58;6.57;;;4.82;;
7171;SDS011;3627;46.544;14.944;2023-09-12T09:15:25;6.53;;;5.10;;
7171;SDS011;3627;46.544;14.944;2023-09-12T09:17:53;5.60;;;5.10;;
7171;SDS011;3627;46.544;14.944;2023-09-12T09:20:27;5.40;;;4.50;;
7171;SDS011;3627;46.544;14.944;2023-09-12T09:22:57;7.57;;;4.60;;
7171;SDS011;3627;46.544;14.944;2023-09-12T09:25:24;5.40;;;4.90;;
7171;SDS011;3627;46.544;14.944;2023-09-12T09:27:50;5.40;;;4.90;;
7171;SDS011;3627;46.544;14.944;2023-09-12T09:30:18;6.32;;;4.75;;
7171;SDS011;3627;46.544;14.944;2023-09-12T09:32:45;5.28;;;4.80;;
7171;SDS011;3627;46.544;14.944;2023-09-12T09:35:13;7.28;;;5.00;;
7171;SDS011;3627;46.544;14.944;2023-09-12T09:37:40;6.63;;;5.18;;
7171;SDS011;3627;46.544;14.944;2023-09-12T09:40:07;5.93;;;5.25;;
7171;SDS011;3627;46.544;14.944;2023-09-12T09:42:35;5.47;;;4.95;;
7171;SDS011;3627;46.544;14.944;2023-09-12T09:45:02;5.80;;;5.30;;
7171;SDS011;3627;46.544;14.944;2023-09-12T09:47:30;5.60;;;5.20;;
7171;SDS011;3627;46.544;14.944;2023-09-12T09:49:57;6.82;;;5.28;;
7171;SDS011;3627;46.544;14.944;2023-09-12T09:52:25;9.40;;;5.50;;
7171;SDS011;3627;46.544;14.944;2023-09-12T09:54:51;6.32;;;5.57;;
7171;SDS011;3627;46.544;14.944;2023-09-12T09:57:17;9.07;;;5.55;;
7171;SDS011;3627;46.544;14.944;2023-09-12T09:59:48;7.63;;;5.60;;
7171;SDS011;3627;46.544;14.944;2023-09-12T10:02:16;8.63;;;5.60;;
7171;SDS011;3627;46.544;14.944;2023-09-12T10:04:48;10.05;;;6.13;;
7171;SDS011;3627;46.544;14.944;2023-09-12T10:07:15;8.35;;;5.85;;
7171;SDS011;3627;46.544;14.944;2023-09-12T10:09:42;6.50;;;5.63;;
7171;SDS011;3627;46.544;14.944;2023-09-12T10:12:09;8.35;;;5.88;;
7171;SDS011;3627;46.544;14.944;2023-09-12T10:14:36;6.43;;;5.82;;
7171;SDS011;3627;46.544;14.944;2023-09-12T10:17:05;6.85;;;6.15;;
7171;SDS011;3627;46.544;14.944;2023-09-12T10:19:32;9.05;;;6.20;;
7171;SDS011;3627;46.544;14.944;2023-09-12T10:22:04;9.82;;;6.35;;
7171;SDS011;3627;46.544;14.944;2023-09-12T10:24:32;6.90;;;5.80;;
7171;SDS011;3627;46.544;14.944;2023-09-12T10:26:59;6.60;;;5.90;;
7171;SDS011;3627;46.544;14.944;2023-09-12T10:29:27;11.30;;;6.28;;
7171;SDS011;3627;46.544;14.944;2023-09-12T10:31:53;6.43;;;5.78;;
7171;SDS011;3627;46.544;14.944;2023-09-12T10:34:20;6.97;;;5.75;;
7171;SDS011;3627;46.544;14.944;2023-09-12T10:36:47;8.27;;;6.40;;
7171;SDS011;3627;46.544;14.944;2023-09-12T10:39:15;7.80;;;5.75;;
7171;SDS011;3627;46.544;14.944;2023-09-12T10:41:41;6.00;;;5.45;;
7171;SDS011;3627;46.544;14.944;2023-09-12T10:44:09;7.38;;;6.32;;
7171;SDS011;3627;46.544;14.944;2023-09-12T10:46:36;8.23;;;6.20;;
7171;SDS011;3627;46.544;14.944;2023-09-12T10:49:03;8.23;;;6.28;;
7171;SDS011;3627;46.544;14.944;2023-09-12T10:51:29;8.77;;;6.32;;
7171;SDS011;3627;46.544;14.944;2023-09-12T10:53:57;9.55;;;5.63;;
7171;SDS011;3627;46.544;14.944;2023-09-12T10:56:25;9.57;;;5.90;;
7171;SDS011;3627;46.544;14.944;2023-09-12T10:59:09;7.22;;;6.43;;
7171;SDS011;3627;46.544;14.944;2023-09-12T11:01:37;6.82;;;6.13;;
7171;SDS011;3627;46.544;14.944;2023-09-12T11:04:29;7.60;;;6.07;;
7171;SDS011;3627;46.544;14.944;2023-09-12T11:06:55;9.10;;;6.93;;
7171;SDS011;3627;46.544;14.944;2023-09-12T11:09:23;9.52;;;6.68;;
7171;SDS011;3627;46.544;14.944;2023-09-12T11:11:55;6.70;;;5.60;;
7171;SDS011;3627;46.544;14.944;2023-09-12T11:14:21;7.22;;;6.47;;
7171;SDS011;3627;46.544;14.944;2023-09-12T11:19:42;6.88;;;6.10;;
7171;SDS011;3627;46.544;14.944;2023-09-12T11:22:20;10.25;;;7.00;;
7171;SDS011;3627;46.544;14.944;2023-09-12T11:24:46;6.60;;;6.00;;
7171;SDS011;3627;46.544;14.944;2023-09-12T11:27:14;7.18;;;6.47;;
7171;SDS011;3627;46.544;14.944;2023-09-12T11:29:42;8.32;;;6.53;;
7171;SDS011;3627;46.544;14.944;2023-09-12T11:32:08;7.60;;;6.80;;
7171;SDS011;3627;46.544;14.944;2023-09-12T11:34:36;10.88;;;6.55;;
7171;SDS011;3627;46.544;14.944;2023-09-12T11:37:03;7.43;;;6.55;;
7171;SDS011;3627;46.544;14.944;2023-09-12T11:39:30;8.43;;;6.30;;
7171;SDS011;3627;46.544;14.944;2023-09-12T11:41:59;8.45;;;6.07;;
7171;SDS011;3627;46.544;14.944;2023-09-12T11:44:27;7.10;;;6.18;;
7171;SDS011;3627;46.544;14.944;2023-09-12T11:46:55;7.40;;;6.57;;
7171;SDS011;3627;46.544;14.944;2023-09-12T11:49:28;7.28;;;6.45;;
7171;SDS011;3627;46.544;14.944;2023-09-12T11:51:54;8.38;;;7.00;;
7171;SDS011;3627;46.544;14.944;2023-09-12T11:54:24;7.55;;;6.80;;
7171;SDS011;3627;46.544;14.944;2023-09-12T11:56:50;8.95;;;7.00;;
7171;SDS011;3627;46.544;14.944;2023-09-12T11:59:21;9.93;;;6.93;;
7171;SDS011;3627;46.544;14.944;2023-09-12T12:01:49;7.22;;;6.40;;
7171;SDS011;3627;46.544;14.944;2023-09-12T12:04:16;6.45;;;5.85;;
7171;SDS011;3627;46.544;14.944;2023-09-12T12:06:42;7.45;;;5.90;;
7171;SDS011;3627;46.544;14.944;2023-09-12T12:09:09;7.97;;;6.75;;
7171;SDS011;3627;46.544;14.944;2023-09-12T12:11:36;6.80;;;6.15;;
7171;SDS011;3627;46.544;14.944;2023-09-12T12:14:11;9.23;;;7.20;;
7171;SDS011;3627;46.544;14.944;2023-09-12T12:16:37;8.48;;;6.63;;
7171;SDS011;3627;46.544;14.944;2023-09-12T12:19:05;8.23;;;6.40;;
7171;SDS011;3627;46.544;14.944;2023-09-12T12:21:31;6.90;;;6.13;;
7171;SDS011;3627;46.544;14.944;2023-09-12T12:23:58;7.95;;;6.72;;
7171;SDS011;3627;46.544;14.944;2023-09-12T12:26:25;7.85;;;6.22;;
7171;SDS011;3627;46.544;14.944;2023-09-12T12:28:51;8.05;;;6.57;;
7171;SDS011;3627;46.544;14.944;2023-09-12T12:31:18;6.53;;;5.93;;
7171;SDS011;3627;46.544;14.944;2023-09-12T12:33:47;7.68;;;6.47;;
7171;SDS011;3627;46.544;14.944;2023-09-12T12:36:15;9.32;;;6.47;;
7171;SDS011;3627;46.544;14.944;2023-09-12T12:38:41;8.23;;;6.80;;
7171;SDS011;3627;46.544;14.944;2023-09-12T12:41:09;11.75;;;7.18;;
7171;SDS011;3627;46.544;14.944;2023-09-12T12:43:35;10.98;;;7.32;;
7171;SDS011;3627;46.544;14.944;2023-09-12T12:46:02;10.27;;;7.72;;
7171;SDS011;3627;46.544;14.944;2023-09-12T12:48:29;10.85;;;6.60;;
7171;SDS011;3627;46.544;14.944;2023-09-12T12:50:56;8.15;;;6.28;;
7171;SDS011;3627;46.544;14.944;2023-09-12T12:56:05;9.48;;;6.75;;
7171;SDS011;3627;46.544;14.944;2023-09-12T12:58:31;9.68;;;7.00;;
7171;SDS011;3627;46.544;14.944;2023-09-12T13:00:58;7.07;;;6.30;;
7171;SDS011;3627;46.544;14.944;2023-09-12T13:03:24;9.82;;;6.95;;
7171;SDS011;3627;46.544;14.944;2023-09-12T13:05:50;10.85;;;7.15;;
7171;SDS011;3627;46.544;14.944;2023-09-12T13:08:17;8.48;;;7.15;;
7171;SDS011;3627;46.544;14.944;2023-09-12T13:10:43;10.57;;;6.68;;
7171;SDS011;3627;46.544;14.944;2023-09-12T13:13:11;10.02;;;7.45;;
7171;SDS011;3627;46.544;14.944;2023-09-12T13:15:37;8.50;;;7.28;;
7171;SDS011;3627;46.544;14.944;2023-09-12T13:18:04;11.23;;;7.68;;
7171;SDS011;3627;46.544;14.944;2023-09-12T13:20:30;10.10;;;7.68;;
7171;SDS011;3627;46.544;14.944;2023-09-12T13:22:57;9.90;;;7.07;;
7171;SDS011;3627;46.544;14.944;2023-09-12T13:25:23;11.60;;;7.70;;
7171;SDS011;3627;46.544;14.944;2023-09-12T13:27:49;10.07;;;8.25;;
7171;SDS011;3627;46.544;14.944;2023-09-12T13:30:17;8.63;;;7.80;;
7171;SDS011;3627;46.544;14.944;2023-09-12T13:32:43;9.10;;;8.20;;
7171;SDS011;3627;46.544;14.944;2023-09-12T13:35:11;9.15;;;8.23;;
7171;SDS011;3627;46.544;14.944;2023-09-12T13:37:37;8.73;;;7.82;;
7171;SDS011;3627;46.544;14.944;2023-09-12T13:40:04;12.50;;;8.23;;
7171;SDS011;3627;46.544;14.944;2023-09-12T13:42:33;8.70;;;7.47;;
7171;SDS011;3627;46.544;14.944;2023-09-12T13:45:00;8.77;;;7.85;;
7171;SDS011;3627;46.544;14.944;2023-09-12T13:47:28;8.88;;;7.18;;
7171;SDS011;3627;46.544;14.944;2023-09-12T13:49:55;8.00;;;7.25;;
7171;SDS011;3627;46.544;14.944;2023-09-12T13:52:22;10.73;;;7.53;;
7171;SDS011;3627;46.544;14.944;2023-09-12T13:54:48;8.85;;;7.95;;
7171;SDS011;3627;46.544;14.944;2023-09-12T13:57:15;9.02;;;7.60;;
7171;SDS011;3627;46.544;14.944;2023-09-12T13:59:41;8.95;;;7.43;;
7171;SDS011;3627;46.544;14.944;2023-09-12T14:02:08;8.15;;;7.32;;
7171;SDS011;3627;46.544;14.944;2023-09-12T14:04:35;9.57;;;7.47;;
7171;SDS011;3627;46.544;14.944;2023-09-12T14:07:02;10.68;;;7.47;;
7171;SDS011;3627;46.544;14.944;2023-09-12T14:09:28;8.32;;;7.53;;
7171;SDS011;3627;46.544;14.944;2023-09-12T14:11:55;12.55;;;7.25;;
7171;SDS011;3627;46.544;14.944;2023-09-12T14:14:21;8.10;;;6.80;;
7171;SDS011;3627;46.544;14.944;2023-09-12T14:16:47;8.25;;;6.28;;
7171;SDS011;3627;46.544;14.944;2023-09-12T14:19:14;7.47;;;6.70;;
7171;SDS011;3627;46.544;14.944;2023-09-12T14:21:41;7.53;;;6.82;;
7171;SDS011;3627;46.544;14.944;2023-09-12T14:24:09;8.40;;;7.22;;
7171;SDS011;3627;46.544;14.944;2023-09-12T14:26:35;8.57;;;6.28;;
7171;SDS011;3627;46.544;14.944;2023-09-12T14:29:02;8.95;;;7.07;;
7171;SDS011;3627;46.544;14.944;2023-09-12T14:31:28;7.85;;;6.47;;
7171;SDS011;3627;46.544;14.944;2023-09-12T14:33:55;10.00;;;8.35;;
7171;SDS011;3627;46.544;14.944;2023-09-12T14:36:22;9.25;;;6.43;;
7171;SDS011;3627;46.544;14.944;2023-09-12T14:38:50;12.57;;;8.55;;
7171;SDS011;3627;46.544;14.944;2023-09-12T14:41:17;11.75;;;9.35;;
7171;SDS011;3627;46.544;14.944;2023-09-12T14:43:43;11.63;;;8.02;;
7171;SDS011;3627;46.544;14.944;2023-09-12T14:46:09;8.05;;;6.93;;
7171;SDS011;3627;46.544;14.944;2023-09-12T14:48:36;12.93;;;7.45;;
7171;SDS011;3627;46.544;14.944;2023-09-12T14:51:03;8.65;;;6.30;;
7171;SDS011;3627;46.544;14.944;2023-09-12T14:53:29;10.32;;;8.95;;
7171;SDS011;3627;46.544;14.944;2023-09-12T14:55:58;13.13;;;8.50;;
7171;SDS011;3627;46.544;14.944;2023-09-12T14:58:24;11.20;;;8.40;;
7171;SDS011;3627;46.544;14.944;2023-09-12T15:00:51;11.60;;;7.88;;
7171;SDS011;3627;46.544;14.944;2023-09-12T15:03:17;8.98;;;7.03;;
7171;SDS011;3627;46.544;14.944;2023-09-12T15:05:43;8.15;;;6.72;;
7171;SDS011;3627;46.544;14.944;2023-09-12T15:08:10;8.35;;;7.32;;
7171;SDS011;3627;46.544;14.944;2023-09-12T15:10:36;8.63;;;7.30;;
7171;SDS011;3627;46.544;14.944;2023-09-12T15:13:04;7.03;;;6.32;;
7171;SDS011;3627;46.544;14.944;2023-09-12T15:15:31;8.05;;;6.78;;
7171;SDS011;3627;46.544;14.944;2023-09-12T15:17:57;11.00;;;8.32;;
7171;SDS011;3627;46.544;14.944;2023-09-12T15:20:24;11.05;;;7.88;;
7171;SDS011;3627;46.544;14.944;2023-09-12T15:22:51;10.38;;;7.05;;
7171;SDS011;3627;46.544;14.944;2023-09-12T15:25:18;12.48;;;8.18;;
7171;SDS011;3627;46.544;14.944;2023-09-12T15:27:44;10.80;;;9.50;;
7171;SDS011;3627;46.544;14.944;2023-09-12T15:30:12;8.30;;;7.55;;
7171;SDS011;3627;46.544;14.944;2023-09-12T15:32:39;11.05;;;8.75;;
7171;SDS011;3627;46.544;14.944;2023-09-12T15:35:05;7.88;;;6.78;;
7171;SDS011;3627;46.544;14.944;2023-09-12T15:37:32;10.50;;;8.07;;
7171;SDS011;3627;46.544;14.944;2023-09-12T15:39:59;8.75;;;7.85;;
7171;SDS011;3627;46.544;14.944;2023-09-12T15:42:25;10.10;;;8.15;;
7171;SDS011;3627;46.544;14.944;2023-09-12T15:44:51;8.13;;;7.18;;
7171;SDS011;3627;46.544;14.944;2023-09-12T15:47:19;10.18;;;7.00;;
7171;SDS011;3627;46.544;14.944;2023-09-12T15:49:46;8.65;;;7.18;;
7171;SDS011;3627;46.544;14.944;2023-09-12T15:52:12;8.45;;;7.35;;
7171;SDS011;3627;46.544;14.944;2023-09-12T15:54:39;8.93;;;7.97;;
7171;SDS011;3627;46.544;14.944;2023-09-12T15:57:05;8.70;;;7.20;;
7171;SDS011;3627;46.544;14.944;2023-09-12T15:59:31;9.80;;;7.72;;
7171;SDS011;3627;46.544;14.944;2023-09-12T16:01:58;10.48;;;7.50;;
7171;SDS011;3627;46.544;14.944;2023-09-12T16:04:26;9.50;;;8.00;;
7171;SDS011;3627;46.544;14.944;2023-09-12T16:06:52;8.20;;;6.82;;
7171;SDS011;3627;46.544;14.944;2023-09-12T16:09:18;8.55;;;7.47;;
7171;SDS011;3627;46.544;14.944;2023-09-12T16:11:45;8.02;;;7.22;;
7171;SDS011;3627;46.544;14.944;2023-09-12T16:14:11;9.38;;;7.57;;
7171;SDS011;3627;46.544;14.944;2023-09-12T16:16:37;11.02;;;8.15;;
7171;SDS011;3627;46.544;14.944;2023-09-12T16:19:04;8.68;;;7.72;;
7171;SDS011;3627;46.544;14.944;2023-09-12T16:21:34;8.85;;;7.40;;
7171;SDS011;3627;46.544;14.944;2023-09-12T16:24:00;8.93;;;7.60;;
7171;SDS011;3627;46.544;14.944;2023-09-12T16:26:26;8.85;;;7.95;;
7171;SDS011;3627;46.544;14.944;2023-09-12T16:28:53;11.20;;;7.50;;
7171;SDS011;3627;46.544;14.944;2023-09-12T16:31:19;10.18;;;7.75;;
7171;SDS011;3627;46.544;14.944;2023-09-12T16:33:45;8.73;;;7.68;;
7171;SDS011;3627;46.544;14.944;2023-09-12T16:36:12;9.95;;;7.80;;
7171;SDS011;3627;46.544;14.944;2023-09-12T16:38:40;11.20;;;8.43;;
7171;SDS011;3627;46.544;14.944;2023-09-12T16:41:06;12.40;;;8.05;;
7171;SDS011;3627;46.544;14.944;2023-09-12T16:43:32;8.57;;;7.68;;
7171;SDS011;3627;46.544;14.944;2023-09-12T16:45:59;8.98;;;8.07;;
7171;SDS011;3627;46.544;14.944;2023-09-12T16:48:25;10.73;;;8.38;;
7171;SDS011;3627;46.544;14.944;2023-09-12T16:50:52;8.57;;;7.78;;
7171;SDS011;3627;46.544;14.944;2023-09-12T16:53:18;9.25;;;8.35;;